createdAt,value
2018-12-29T00:03:06.348Z,5.57
2018-12-29T00:05:34.902Z,5.10
2018-12-29T00:08:03.459Z,6.20
2018-12-29T00:10:32.406Z,6.42
2018-12-29T00:13:01.056Z,5.53
2018-12-29T00:15:29.526Z,6.30
2018-12-29T00:17:58.230Z,5.97
2018-12-29T00:20:26.856Z,4.67
2018-12-29T00:22:55.482Z,4.97
2018-12-29T00:25:24.315Z,4.63
2018-12-29T00:27:52.861Z,4.00
2018-12-29T00:30:21.476Z,4.53
2018-12-29T00:32:50.385Z,5.95
2018-12-29T00:35:18.881Z,4.57
2018-12-29T00:37:47.362Z,4.40
2018-12-29T00:40:16.238Z,4.30
2018-12-29T00:42:44.889Z,3.85
2018-12-29T00:45:13.434Z,3.97
2018-12-29T00:47:42.593Z,3.97
2018-12-29T00:50:11.201Z,3.27
2018-12-29T00:52:39.825Z,3.83
2018-12-29T00:55:08.383Z,3.83
2018-12-29T00:57:37.002Z,4.03
2018-12-29T01:00:07.238Z,3.97
2018-12-29T01:02:35.809Z,4.25
2018-12-29T01:05:04.887Z,3.80
2018-12-29T01:07:33.706Z,5.63
2018-12-29T01:10:02.199Z,7.13
2018-12-29T01:12:30.665Z,6.17
2018-12-29T01:14:59.312Z,6.07
2018-12-29T01:17:27.923Z,6.83
2018-12-29T01:19:56.594Z,6.78
2018-12-29T01:22:25.428Z,6.08
2018-12-29T01:24:54.044Z,7.30
2018-12-29T01:27:22.661Z,7.30
2018-12-29T01:29:51.462Z,8.00
2018-12-29T01:32:20.023Z,8.70
2018-12-29T01:34:48.647Z,6.87
2018-12-29T01:37:17.335Z,5.80
2018-12-29T01:39:45.954Z,8.90
2018-12-29T01:42:14.576Z,8.53
2018-12-29T01:44:43.480Z,9.03
2018-12-29T01:47:12.042Z,8.93
2018-12-29T01:49:40.661Z,10.27
2018-12-29T01:52:09.630Z,8.75
2018-12-29T01:54:38.180Z,8.65
2018-12-29T01:57:06.775Z,8.70
2018-12-29T01:59:35.434Z,9.03
2018-12-29T02:02:04.697Z,8.30
2018-12-29T02:04:33.192Z,7.97
2018-12-29T02:07:01.961Z,8.08
2018-12-29T02:09:30.574Z,8.33
2018-12-29T02:11:59.211Z,7.97
2018-12-29T02:14:27.917Z,8.53
2018-12-29T02:16:56.571Z,8.73
2018-12-29T02:19:25.121Z,8.53
2018-12-29T02:21:53.651Z,8.93
2018-12-29T02:24:22.282Z,7.40
2018-12-29T02:26:50.903Z,7.00
2018-12-29T02:29:19.653Z,6.30
2018-12-29T02:31:48.145Z,6.05
2018-12-29T02:34:16.758Z,5.23
2018-12-29T02:36:45.671Z,6.03
2018-12-29T02:39:14.172Z,6.03
2018-12-29T02:41:42.730Z,6.53
2018-12-29T02:44:11.370Z,5.60
2018-12-29T02:46:39.990Z,4.67
2018-12-29T02:49:08.477Z,4.13
2018-12-29T02:51:37.175Z,4.23
2018-12-29T02:54:05.799Z,4.58
2018-12-29T02:56:34.430Z,4.57
2018-12-29T02:59:03.034Z,4.77
2018-12-29T03:01:31.530Z,4.20
2018-12-29T03:04:00.147Z,4.87
2018-12-29T03:06:29.184Z,3.77
2018-12-29T03:08:57.665Z,4.42
2018-12-29T03:11:26.153Z,4.67
2018-12-29T03:13:55.126Z,6.08
2018-12-29T03:16:23.743Z,5.33
2018-12-29T03:18:52.292Z,5.03
2018-12-29T03:21:20.809Z,4.70
2018-12-29T03:23:49.419Z,5.05
2018-12-29T03:26:18.048Z,5.37
2018-12-29T03:28:46.601Z,6.20
2018-12-29T03:31:15.087Z,5.87
2018-12-29T03:33:44.003Z,5.77
2018-12-29T03:36:12.562Z,5.40
2018-12-29T03:38:41.183Z,6.30
2018-12-29T03:41:10.057Z,5.67
2018-12-29T03:43:38.617Z,5.47
2018-12-29T03:46:07.249Z,5.95
2018-12-29T03:48:36.221Z,6.07
2018-12-29T03:51:04.939Z,5.80
2018-12-29T03:53:33.598Z,5.90
2018-12-29T03:56:02.350Z,6.33
2018-12-29T03:58:31.015Z,5.93
2018-12-29T04:00:59.704Z,6.37
2018-12-29T04:03:28.341Z,6.17
2018-12-29T04:05:56.891Z,6.90
2018-12-29T04:08:25.547Z,6.37
2018-12-29T04:10:54.488Z,6.40
2018-12-29T04:13:23.031Z,7.13
2018-12-29T04:15:57.900Z,5.33
2018-12-29T04:18:22.065Z,5.77
2018-12-29T04:20:50.558Z,5.60
2018-12-29T04:23:19.174Z,5.83
2018-12-29T04:25:47.824Z,5.77
2018-12-29T04:28:16.370Z,5.33
2018-12-29T04:30:44.914Z,5.83
2018-12-29T04:33:13.598Z,6.47
2018-12-29T04:35:42.223Z,6.00
2018-12-29T04:38:10.699Z,6.20
2018-12-29T04:40:39.518Z,6.57
2018-12-29T04:43:08.142Z,6.70
2018-12-29T04:45:36.761Z,6.30
2018-12-29T04:48:05.479Z,6.27
2018-12-29T04:50:34.132Z,5.57
2018-12-29T04:53:02.741Z,6.50
2018-12-29T04:55:31.639Z,6.13
2018-12-29T04:58:00.255Z,6.33
2018-12-29T05:00:28.985Z,5.97
2018-12-29T05:02:57.795Z,7.00
2018-12-29T05:05:26.271Z,7.33
2018-12-29T05:07:54.919Z,6.80
2018-12-29T05:10:23.753Z,6.43
2018-12-29T05:12:55.273Z,5.73
2018-12-29T05:15:23.762Z,4.30
2018-12-29T05:17:52.769Z,6.37
2018-12-29T05:20:21.469Z,6.77
2018-12-29T05:22:50.017Z,6.57
2018-12-29T05:25:18.942Z,7.07
2018-12-29T05:27:47.684Z,6.40
2018-12-29T05:30:16.290Z,6.00
2018-12-29T05:32:44.988Z,6.60
2018-12-29T05:35:15.234Z,6.12
2018-12-29T05:37:43.907Z,6.93
2018-12-29T05:40:12.788Z,6.43
2018-12-29T05:42:41.407Z,5.13
2018-12-29T05:45:10.014Z,3.90
2018-12-29T05:47:38.844Z,4.30
2018-12-29T05:50:07.454Z,4.12
2018-12-29T05:52:36.073Z,4.13
2018-12-29T05:55:05.000Z,4.27
2018-12-29T05:57:33.486Z,5.30
2018-12-29T06:00:02.021Z,5.13
2018-12-29T06:02:30.914Z,5.03
2018-12-29T06:04:59.550Z,4.80
2018-12-29T06:07:28.032Z,5.00
2018-12-29T06:09:56.898Z,5.40
2018-12-29T06:12:25.515Z,5.60
2018-12-29T06:14:53.996Z,5.70
2018-12-29T06:19:57.383Z,6.27
2018-12-29T06:22:25.866Z,4.75
2018-12-29T06:24:54.355Z,4.83
2018-12-29T06:27:23.339Z,6.67
2018-12-29T06:29:51.973Z,6.43
2018-12-29T06:32:20.455Z,6.42
2018-12-29T06:34:59.623Z,6.80
2018-12-29T06:37:19.630Z,7.63
2018-12-29T06:39:48.264Z,8.10
2018-12-29T06:47:25.508Z,8.47
2018-12-29T06:49:54.138Z,8.53
2018-12-29T06:52:22.770Z,8.87
2018-12-29T06:54:51.473Z,7.17
2018-12-29T06:57:20.117Z,8.40
2018-12-29T06:59:48.617Z,9.40
2018-12-29T07:02:17.139Z,9.00
2018-12-29T07:04:45.755Z,9.33
2018-12-29T07:07:14.383Z,8.80
2018-12-29T07:09:42.909Z,9.00
2018-12-29T07:12:11.408Z,9.28
2018-12-29T07:14:40.076Z,8.67
2018-12-29T07:17:08.732Z,7.80
2018-12-29T07:19:37.226Z,7.43
2018-12-29T07:22:05.702Z,6.85
2018-12-29T07:24:34.356Z,6.40
2018-12-29T07:27:02.992Z,6.10
2018-12-29T07:29:38.083Z,6.87
2018-12-29T07:32:01.689Z,9.90
2018-12-29T07:34:30.392Z,8.10
2018-12-29T07:36:58.904Z,8.68
2018-12-29T07:39:27.538Z,7.80
2018-12-29T07:41:56.158Z,6.80
2018-12-29T07:44:24.961Z,7.92
2018-12-29T07:46:53.447Z,8.18
2018-12-29T07:49:22.094Z,7.90
2018-12-29T07:51:50.886Z,7.30
2018-12-29T07:54:19.363Z,5.73
2018-12-29T07:56:47.861Z,5.67
2018-12-29T07:59:16.762Z,7.08
2018-12-29T08:01:45.398Z,8.90
2018-12-29T08:04:13.914Z,7.15
2018-12-29T08:06:42.406Z,7.75
2018-12-29T08:09:11.024Z,8.08
2018-12-29T08:11:39.643Z,6.65
2018-12-29T08:14:08.468Z,31.50
2018-12-29T08:16:37.019Z,11.83
2018-12-29T08:19:07.159Z,16.62
2018-12-29T08:21:35.814Z,10.32
2018-12-29T08:24:04.384Z,8.13
2018-12-29T08:26:32.878Z,6.42
2018-12-29T08:29:01.823Z,11.35
2018-12-29T08:31:30.444Z,9.05
2018-12-29T08:33:58.973Z,5.95
2018-12-29T08:36:27.762Z,6.08
2018-12-29T08:38:56.384Z,6.50
2018-12-29T08:41:24.998Z,5.83
2018-12-29T08:43:53.819Z,7.97
2018-12-29T08:46:22.313Z,8.68
2018-12-29T08:48:50.947Z,8.10
2018-12-29T08:51:19.600Z,6.75
2018-12-29T08:53:48.090Z,5.33
2018-12-29T08:56:16.720Z,5.85
2018-12-29T08:58:45.420Z,5.85
2018-12-29T09:01:13.915Z,6.72
2018-12-29T09:03:42.546Z,6.53
2018-12-29T09:06:11.224Z,5.83
2018-12-29T09:08:39.803Z,6.67
2018-12-29T09:11:08.280Z,5.72
2018-12-29T09:13:37.228Z,6.10
2018-12-29T09:16:05.876Z,5.22
2018-12-29T09:18:34.427Z,6.27
2018-12-29T09:21:02.912Z,5.27
2018-12-29T09:23:31.857Z,5.27
2018-12-29T09:26:00.473Z,4.45
2018-12-29T09:28:29.031Z,5.10
2018-12-29T09:30:57.647Z,5.57
2018-12-29T09:33:26.281Z,6.80
2018-12-29T09:35:56.312Z,6.37
2018-12-29T09:38:25.435Z,5.95
2018-12-29T09:40:54.130Z,6.22
2018-12-29T09:43:22.687Z,6.87
2018-12-29T09:45:51.210Z,7.23
2018-12-29T09:48:19.819Z,8.50
2018-12-29T09:50:48.448Z,8.37
2018-12-29T09:53:17.315Z,7.37
2018-12-29T09:55:45.801Z,6.60
2018-12-29T09:58:14.418Z,7.62
2018-12-29T10:00:43.070Z,7.57
2018-12-29T10:03:11.549Z,6.23
2018-12-29T10:05:40.043Z,6.90
2018-12-29T10:08:08.700Z,8.08
2018-12-29T10:10:37.331Z,7.25
2018-12-29T10:13:05.884Z,7.30
2018-12-29T10:15:34.588Z,7.50
2018-12-29T10:18:03.134Z,7.65
2018-12-29T10:20:31.718Z,7.70
2018-12-29T10:23:00.373Z,8.15
2018-12-29T10:25:29.070Z,6.62
2018-12-29T10:27:57.550Z,5.90
2018-12-29T10:30:26.133Z,4.85
2018-12-29T10:32:54.765Z,5.45
2018-12-29T10:35:23.400Z,5.37
2018-12-29T10:37:51.916Z,5.60
2018-12-29T10:40:20.463Z,6.13
2018-12-29T10:42:49.094Z,4.30
2018-12-29T10:45:17.976Z,4.60
2018-12-29T10:47:46.471Z,5.85
2018-12-29T10:50:15.027Z,6.10
2018-12-29T10:52:43.736Z,11.37
2018-12-29T10:55:12.556Z,9.93
2018-12-29T10:57:41.187Z,6.37
2018-12-29T11:00:10.443Z,6.03
2018-12-29T11:02:38.992Z,3.83
2018-12-29T11:05:08.420Z,5.22
2018-12-29T11:07:37.262Z,4.78
2018-12-29T11:10:07.297Z,3.67
2018-12-29T11:12:35.775Z,4.20
2018-12-29T11:15:04.869Z,4.50
2018-12-29T11:17:33.564Z,4.57
2018-12-29T11:20:02.302Z,3.50
2018-12-29T11:22:31.114Z,3.50
2018-12-29T11:24:59.745Z,4.05
2018-12-29T11:27:28.369Z,3.57
2018-12-29T11:29:57.381Z,4.90
2018-12-29T11:32:25.870Z,5.67
2018-12-29T11:34:54.487Z,6.30
2018-12-29T11:37:23.243Z,9.73
2018-12-29T11:39:51.722Z,5.00
2018-12-29T11:42:20.373Z,8.05
2018-12-29T11:44:49.279Z,5.47
2018-12-29T11:47:17.781Z,8.68
2018-12-29T11:49:46.418Z,11.05
2018-12-29T11:52:21.147Z,7.15
2018-12-29T11:54:49.773Z,6.22
2018-12-29T11:57:18.268Z,13.95
2018-12-29T11:59:46.796Z,3.47
2018-12-29T12:02:15.481Z,12.43
2018-12-29T12:04:44.440Z,6.90
2018-12-29T12:07:13.395Z,10.43
2018-12-29T12:09:41.938Z,5.60
2018-12-29T12:12:10.569Z,2.97
2018-12-29T12:14:39.456Z,8.08
2018-12-29T12:17:08.363Z,6.50
2018-12-29T12:19:36.993Z,6.80
2018-12-29T12:22:05.570Z,4.53
2018-12-29T12:24:34.065Z,10.97
2018-12-29T12:27:02.745Z,11.50
2018-12-29T12:29:31.659Z,5.80
2018-12-29T12:32:00.141Z,3.67
2018-12-29T12:34:28.627Z,4.53
2018-12-29T12:36:57.633Z,3.90
2018-12-29T12:39:26.273Z,4.00
2018-12-29T12:41:54.842Z,3.10
2018-12-29T12:44:23.421Z,2.40
2018-12-29T12:46:52.042Z,3.27
2018-12-29T12:49:20.654Z,3.70
2018-12-29T12:51:49.414Z,4.73
2018-12-29T12:54:18.045Z,4.87
2018-12-29T12:56:46.600Z,5.27
2018-12-29T12:59:15.791Z,5.93
2018-12-29T13:01:44.701Z,4.57
2018-12-29T13:04:13.320Z,4.40
2018-12-29T13:06:41.839Z,5.00
2018-12-29T13:09:10.690Z,6.80
2018-12-29T13:11:39.306Z,5.37
2018-12-29T13:14:07.977Z,5.75
2018-12-29T13:16:36.456Z,6.77
2018-12-29T13:19:05.024Z,6.70
2018-12-29T13:21:34.047Z,6.00
2018-12-29T13:24:02.663Z,5.57
2018-12-29T13:26:31.139Z,7.03
2018-12-29T13:28:59.901Z,6.53
2018-12-29T13:31:28.531Z,7.90
2018-12-29T13:33:57.525Z,7.10
2018-12-29T13:36:26.482Z,7.83
2018-12-29T13:38:55.113Z,8.43
2018-12-29T13:41:23.745Z,8.87
2018-12-29T13:43:52.629Z,7.50
2018-12-29T13:46:21.391Z,6.60
2018-12-29T13:48:49.876Z,8.67
2018-12-29T13:51:18.787Z,7.37
2018-12-29T13:53:47.405Z,9.70
2018-12-29T13:56:16.035Z,9.33
2018-12-29T13:58:45.849Z,8.43
2018-12-29T14:01:14.449Z,6.40
2018-12-29T14:03:43.111Z,6.63
2018-12-29T14:06:11.611Z,6.37
2018-12-29T14:08:40.237Z,7.57
2018-12-29T14:11:08.791Z,6.70
2018-12-29T14:13:37.444Z,6.83
2018-12-29T14:16:06.061Z,7.60
2018-12-29T14:18:34.630Z,8.40
2018-12-29T14:21:03.284Z,7.90
2018-12-29T14:23:31.847Z,7.60
2018-12-29T14:26:00.462Z,7.40
2018-12-29T14:28:29.380Z,7.67
2018-12-29T14:30:57.944Z,8.33
2018-12-29T14:33:26.579Z,6.87
2018-12-29T14:35:55.247Z,7.10
2018-12-29T14:38:23.803Z,6.47
2018-12-29T14:40:52.422Z,6.60
2018-12-29T14:43:21.003Z,7.27
2018-12-29T14:45:49.632Z,8.20
2018-12-29T14:48:18.183Z,8.17
2018-12-29T14:50:46.783Z,8.57
2018-12-29T14:53:15.335Z,8.20
2018-12-29T14:55:44.106Z,7.03
2018-12-29T14:58:12.956Z,8.10
2018-12-29T15:00:41.574Z,8.57
2018-12-29T15:03:10.516Z,8.73
2018-12-29T15:05:39.081Z,12.27
2018-12-29T15:08:07.702Z,11.20
2018-12-29T15:10:36.740Z,9.47
2018-12-29T15:13:08.720Z,11.70
2018-12-29T15:15:37.286Z,12.00
2018-12-29T15:18:06.682Z,9.83
2018-12-29T15:20:35.766Z,11.17
2018-12-29T15:23:04.692Z,12.40
2018-12-29T15:25:33.541Z,14.60
2018-12-29T15:28:02.203Z,14.23
2018-12-29T15:30:30.825Z,13.97
2018-12-29T15:32:59.591Z,12.73
2018-12-29T15:35:28.212Z,12.17
2018-12-29T15:37:57.141Z,11.10
2018-12-29T15:40:25.951Z,11.90
2018-12-29T15:42:54.516Z,14.17
2018-12-29T15:45:23.513Z,11.93
2018-12-29T15:47:52.423Z,13.73
2018-12-29T15:50:21.073Z,16.83
2018-12-29T15:52:50.009Z,20.67
2018-12-29T15:55:19.001Z,17.50
2018-12-29T15:57:47.558Z,18.20
2018-12-29T16:00:16.110Z,13.73
2018-12-29T16:02:44.959Z,13.37
2018-12-29T16:05:13.596Z,13.73
2018-12-29T16:07:42.543Z,15.40
2018-12-29T16:10:11.409Z,12.93
2018-12-29T16:12:40.043Z,12.57
2018-12-29T16:15:09.144Z,11.17
2018-12-29T16:17:38.099Z,9.70
2018-12-29T16:20:06.708Z,15.83
2018-12-29T16:22:35.267Z,13.77
2018-12-29T16:25:03.805Z,13.53
2018-12-29T16:27:32.368Z,15.13
2018-12-29T16:30:01.042Z,16.27
2018-12-29T16:32:29.665Z,16.70
2018-12-29T16:34:58.154Z,16.83
2018-12-29T16:37:27.013Z,12.00
2018-12-29T16:39:55.701Z,10.80
2018-12-29T16:42:24.640Z,11.87
2018-12-29T16:44:53.431Z,8.60
2018-12-29T16:47:21.989Z,9.30
2018-12-29T16:49:50.619Z,10.30
2018-12-29T16:52:19.686Z,10.20
2018-12-29T16:54:48.348Z,11.60
2018-12-29T16:57:16.906Z,11.10
2018-12-29T16:59:45.739Z,9.33
2018-12-29T17:02:14.674Z,8.27
2018-12-29T17:04:43.298Z,7.40
2018-12-29T17:10:34.307Z,8.40
2018-12-29T17:13:03.246Z,10.60
2018-12-29T17:15:31.873Z,13.73
2018-12-29T17:18:00.974Z,15.53
2018-12-29T17:20:29.695Z,15.13
2018-12-29T17:22:58.315Z,15.77
2018-12-29T17:25:26.950Z,15.90
2018-12-29T17:27:55.685Z,15.90
2018-12-29T17:30:24.287Z,16.53
2018-12-29T17:32:52.846Z,16.33
2018-12-29T17:35:21.555Z,15.80
2018-12-29T17:37:50.148Z,17.63
2018-12-29T17:40:18.856Z,13.70
2018-12-29T17:42:47.777Z,15.07
2018-12-29T17:45:52.345Z,13.80
2018-12-29T17:48:20.940Z,13.83
2018-12-29T17:50:49.562Z,14.83
2018-12-29T17:53:18.306Z,14.03
2018-12-29T17:55:46.822Z,14.00
2018-12-29T17:58:15.433Z,14.40
2018-12-29T18:00:44.087Z,14.17
2018-12-29T18:03:13.595Z,13.67
2018-12-29T18:05:42.242Z,12.23
2018-12-29T18:08:10.877Z,11.07
2018-12-29T18:10:39.470Z,13.37
2018-12-29T18:13:08.037Z,12.23
2018-12-29T18:15:36.655Z,13.30
2018-12-29T18:18:05.600Z,14.27
2018-12-29T18:20:34.459Z,13.00
2018-12-29T18:23:03.015Z,11.23
2018-12-29T18:25:32.074Z,10.47
2018-12-29T18:28:00.640Z,11.60
2018-12-29T18:30:29.508Z,12.80
2018-12-29T18:32:58.441Z,13.97
2018-12-29T18:35:27.066Z,12.47
2018-12-29T18:37:55.654Z,11.33
2018-12-29T18:40:24.405Z,13.07
2018-12-29T18:42:52.956Z,14.50
2018-12-29T18:45:23.052Z,14.77
2018-12-29T18:47:51.868Z,13.07
2018-12-29T18:50:20.353Z,12.97
2018-12-29T18:52:48.976Z,12.00
2018-12-29T18:55:17.648Z,10.57
2018-12-29T18:57:46.449Z,10.30
2018-12-29T19:00:15.308Z,11.00
2018-12-29T19:02:43.873Z,11.60
2018-12-29T19:05:12.498Z,13.77
2018-12-29T19:07:41.356Z,12.40
2018-12-29T19:10:10.164Z,11.00
2018-12-29T19:12:38.725Z,11.10
2018-12-29T19:15:07.685Z,12.17
2018-12-29T19:17:36.692Z,12.07
2018-12-29T19:20:07.695Z,14.13
2018-12-29T19:22:36.657Z,12.10
2018-12-29T19:25:05.478Z,12.27
2018-12-29T19:27:34.046Z,11.73
2018-12-29T19:30:02.955Z,8.87
2018-12-29T19:32:31.534Z,9.43
2018-12-29T19:35:00.393Z,9.70
2018-12-29T19:37:29.596Z,10.37
2018-12-29T19:39:58.413Z,10.60
2018-12-29T19:42:27.047Z,9.80
2018-12-29T19:44:55.943Z,9.93
2018-12-29T19:47:24.585Z,8.70
2018-12-29T19:49:53.899Z,7.50
2018-12-29T19:52:22.666Z,12.43
2018-12-29T19:54:51.284Z,8.10
2018-12-29T19:57:20.122Z,8.10
2018-12-29T19:59:49.071Z,7.90
2018-12-29T20:02:17.911Z,8.17
2018-12-29T20:04:46.858Z,24.17
2018-12-29T20:07:21.531Z,6.97
2018-12-29T20:09:50.074Z,7.17
2018-12-29T20:12:18.628Z,7.50
2018-12-29T20:14:47.531Z,10.33
2018-12-29T20:17:16.105Z,12.43
2018-12-29T20:19:44.581Z,12.53
2018-12-29T20:22:13.391Z,12.33
2018-12-29T20:24:42.027Z,12.77
2018-12-29T20:27:10.592Z,15.40
2018-12-29T20:29:39.342Z,23.23
2018-12-29T20:32:07.907Z,18.27
2018-12-29T20:34:36.559Z,14.20
2018-12-29T20:37:05.491Z,14.77
2018-12-29T20:42:26.114Z,9.57
2018-12-29T20:44:54.743Z,11.67
2018-12-29T20:47:23.320Z,12.10
2018-12-29T20:49:52.163Z,12.23
2018-12-29T20:52:20.787Z,11.97
2018-12-29T20:54:49.342Z,11.83
2018-12-29T20:57:18.132Z,12.77
2018-12-29T20:59:46.765Z,11.90
2018-12-29T21:02:15.377Z,10.80
2018-12-29T21:04:44.158Z,9.97
2018-12-29T21:07:12.705Z,8.87
2018-12-29T21:09:41.714Z,8.97
2018-12-29T21:12:10.637Z,9.50
2018-12-29T21:14:39.139Z,11.83
2018-12-29T21:17:07.686Z,12.47
2018-12-29T21:19:36.615Z,13.47
2018-12-29T21:22:05.235Z,14.37
2018-12-29T21:24:33.843Z,16.27
2018-12-29T21:27:02.744Z,17.40
2018-12-29T21:29:31.300Z,17.33
2018-12-29T21:31:59.878Z,16.60
2018-12-29T21:34:28.926Z,16.03
2018-12-29T21:36:57.472Z,15.47
2018-12-29T21:39:25.959Z,13.90
2018-12-29T21:41:54.561Z,11.30
2018-12-29T21:44:23.205Z,10.30
2018-12-29T21:46:51.751Z,9.97
2018-12-29T21:49:20.611Z,9.50
2018-12-29T21:51:49.447Z,10.40
2018-12-29T21:54:18.078Z,9.87
2018-12-29T21:56:46.666Z,11.57
2018-12-29T21:59:15.312Z,11.80
2018-12-29T22:01:43.874Z,10.67
2018-12-29T22:04:13.236Z,9.40
2018-12-29T22:06:41.801Z,10.17
2018-12-29T22:09:10.360Z,9.63
2018-12-29T22:11:39.307Z,10.50
2018-12-29T22:14:07.790Z,10.93
2018-12-29T22:16:36.362Z,12.70
2018-12-29T22:19:05.376Z,12.90
2018-12-29T22:21:33.939Z,13.00
2018-12-29T22:24:02.725Z,13.57
2018-12-29T22:26:31.290Z,13.17
2018-12-29T22:28:59.925Z,11.87
2018-12-29T22:31:28.482Z,10.93
2018-12-29T22:33:56.963Z,10.00
2018-12-29T22:36:27.134Z,9.03
2018-12-29T22:38:55.833Z,7.27
2018-12-29T22:41:24.752Z,5.50
2018-12-29T22:43:53.306Z,5.50
2018-12-29T22:46:21.865Z,5.97
2018-12-29T22:48:50.418Z,5.13
2018-12-29T22:51:19.043Z,5.77
2018-12-29T22:53:47.848Z,6.67
2018-12-29T22:56:16.393Z,7.77
2018-12-29T22:58:45.263Z,8.30
2018-12-29T23:01:13.816Z,8.40
2018-12-29T23:03:42.436Z,8.23
2018-12-29T23:06:11.309Z,8.93
2018-12-29T23:08:39.853Z,9.33
2018-12-29T23:11:08.790Z,9.50
2018-12-29T23:13:37.662Z,12.50
2018-12-29T23:16:06.403Z,10.83
2018-12-29T23:18:34.897Z,10.80
2018-12-29T23:21:03.642Z,10.77
2018-12-29T23:23:32.284Z,10.90
2018-12-29T23:26:01.244Z,11.73
2018-12-29T23:28:30.181Z,11.07
2018-12-29T23:30:58.916Z,10.17
2018-12-29T23:33:27.404Z,8.37
2018-12-29T23:35:55.997Z,9.40
2018-12-29T23:38:24.625Z,8.37
2018-12-29T23:40:53.251Z,8.03
2018-12-29T23:43:21.776Z,8.40
2018-12-29T23:45:50.334Z,7.67
2018-12-29T23:48:18.960Z,8.10
2018-12-29T23:50:47.561Z,8.67
2018-12-29T23:53:16.035Z,9.00
2018-12-29T23:55:45.030Z,8.13
2018-12-29T23:58:13.888Z,6.90
